Red Lake, Arizona
Current Conditions -  °F | °C
As of 8:56 PM on Wednesday 26 Nov 2014 (Local Time) from KINW Reporting Station
Clear Clear  
Wind Chill: 28°   Ceiling: Unl
Heat Index: 33°   Visibility: 10mi
Dew Point: 11°   Wind: 6mph
Humidity: 40%   Direction: 280°W
Pressure: 30.43"   Gusts: NA
Location:  35.9324°N, 110.869°W
Report Text: KINW 270356Z AUTO 28005KT 10SM CLR 01/M12 A3043 RMK AO2 SLP318 T00061117
Loading
Personal Weather Stations






























Interactive Weather Map New forecast layout! Learn more

10-Day Weather Forecast

Advertisements
Track Severe Weather on mobile